sensor_id;sensor_type;location;lat;lon;timestamp;temperature;humidity
41882;DHT22;27562;47.524;12.404;2023-09-18T00:00:45;15.30;99.90
41882;DHT22;27562;47.524;12.404;2023-09-18T00:03:11;15.30;99.90
41882;DHT22;27562;47.524;12.404;2023-09-18T00:05:37;15.20;99.90
41882;DHT22;27562;47.524;12.404;2023-09-18T00:08:03;15.20;99.90
41882;DHT22;27562;47.524;12.404;2023-09-18T00:10:28;15.20;99.90
41882;DHT22;27562;47.524;12.404;2023-09-18T00:12:56;15.20;99.90
41882;DHT22;27562;47.524;12.404;2023-09-18T00:15:22;15.20;99.90
41882;DHT22;27562;47.524;12.404;2023-09-18T00:17:48;15.10;99.90
41882;DHT22;27562;47.524;12.404;2023-09-18T00:20:14;15.10;99.90
41882;DHT22;27562;47.524;12.404;2023-09-18T00:22:42;15.10;99.90
41882;DHT22;27562;47.524;12.404;2023-09-18T00:25:07;15.10;99.90
41882;DHT22;27562;47.524;12.404;2023-09-18T00:27:33;15.10;99.90
41882;DHT22;27562;47.524;12.404;2023-09-18T00:30:04;15.00;99.90
41882;DHT22;27562;47.524;12.404;2023-09-18T00:32:30;15.00;99.90
41882;DHT22;27562;47.524;12.404;2023-09-18T00:34:56;15.00;99.90
41882;DHT22;27562;47.524;12.404;2023-09-18T00:37:21;14.90;99.90
41882;DHT22;27562;47.524;12.404;2023-09-18T00:39:47;14.80;99.90
41882;DHT22;27562;47.524;12.404;2023-09-18T00:42:14;14.60;99.90
41882;DHT22;27562;47.524;12.404;2023-09-18T00:44:41;14.50;99.90
41882;DHT22;27562;47.524;12.404;2023-09-18T00:47:11;14.50;99.90
41882;DHT22;27562;47.524;12.404;2023-09-18T00:49:39;14.50;99.90
41882;DHT22;27562;47.524;12.404;2023-09-18T00:52:06;14.60;99.90
41882;DHT22;27562;47.524;12.404;2023-09-18T00:54:34;14.60;99.90
41882;DHT22;27562;47.524;12.404;2023-09-18T00:57:01;14.60;99.90
41882;DHT22;27562;47.524;12.404;2023-09-18T00:59:27;14.50;99.90
41882;DHT22;27562;47.524;12.404;2023-09-18T01:01:52;14.50;99.90
41882;DHT22;27562;47.524;12.404;2023-09-18T01:04:19;14.40;99.90
41882;DHT22;27562;47.524;12.404;2023-09-18T01:06:45;14.30;99.90
41882;DHT22;27562;47.524;12.404;2023-09-18T01:09:11;14.30;99.90
41882;DHT22;27562;47.524;12.404;2023-09-18T01:14:20;14.20;99.90
41882;DHT22;27562;47.524;12.404;2023-09-18T01:16:59;14.30;99.90
41882;DHT22;27562;47.524;12.404;2023-09-18T01:22:09;14.20;99.90
41882;DHT22;27562;47.524;12.404;2023-09-18T01:24:36;14.20;99.90
41882;DHT22;27562;47.524;12.404;2023-09-18T01:27:03;14.10;99.90
41882;DHT22;27562;47.524;12.404;2023-09-18T01:29:30;14.10;99.90
41882;DHT22;27562;47.524;12.404;2023-09-18T01:31:56;14.10;99.90
41882;DHT22;27562;47.524;12.404;2023-09-18T01:34:26;14.20;99.90
41882;DHT22;27562;47.524;12.404;2023-09-18T01:36:55;14.20;99.90
41882;DHT22;27562;47.524;12.404;2023-09-18T01:39:22;14.20;99.90
41882;DHT22;27562;47.524;12.404;2023-09-18T01:41:50;14.20;99.90
41882;DHT22;27562;47.524;12.404;2023-09-18T01:44:15;14.20;99.90
41882;DHT22;27562;47.524;12.404;2023-09-18T01:46:42;14.10;99.90
41882;DHT22;27562;47.524;12.404;2023-09-18T01:49:09;14.00;99.90
41882;DHT22;27562;47.524;12.404;2023-09-18T01:51:35;14.00;99.90
41882;DHT22;27562;47.524;12.404;2023-09-18T01:54:00;14.10;99.90
41882;DHT22;27562;47.524;12.404;2023-09-18T01:56:26;14.10;99.90
41882;DHT22;27562;47.524;12.404;2023-09-18T01:58:52;14.10;99.90
41882;DHT22;27562;47.524;12.404;2023-09-18T02:01:17;14.00;99.90
41882;DHT22;27562;47.524;12.404;2023-09-18T02:03:43;13.90;99.90
41882;DHT22;27562;47.524;12.404;2023-09-18T02:06:11;13.80;99.90
41882;DHT22;27562;47.524;12.404;2023-09-18T02:08:37;13.80;99.90
41882;DHT22;27562;47.524;12.404;2023-09-18T02:11:02;13.80;99.90
41882;DHT22;27562;47.524;12.404;2023-09-18T02:13:31;13.70;99.90
41882;DHT22;27562;47.524;12.404;2023-09-18T02:15:56;13.80;99.90
41882;DHT22;27562;47.524;12.404;2023-09-18T02:18:22;13.80;99.90
41882;DHT22;27562;47.524;12.404;2023-09-18T02:20:48;13.70;99.90
41882;DHT22;27562;47.524;12.404;2023-09-18T02:23:17;13.70;99.90
41882;DHT22;27562;47.524;12.404;2023-09-18T02:25:44;13.70;99.90
41882;DHT22;27562;47.524;12.404;2023-09-18T02:28:09;13.70;99.90
41882;DHT22;27562;47.524;12.404;2023-09-18T02:30:35;13.60;99.90
41882;DHT22;27562;47.524;12.404;2023-09-18T02:33:01;13.50;99.90
41882;DHT22;27562;47.524;12.404;2023-09-18T02:35:30;13.40;99.90
41882;DHT22;27562;47.524;12.404;2023-09-18T02:37:56;13.30;99.90
41882;DHT22;27562;47.524;12.404;2023-09-18T02:40:21;13.10;99.90
41882;DHT22;27562;47.524;12.404;2023-09-18T02:42:47;13.00;99.90
41882;DHT22;27562;47.524;12.404;2023-09-18T02:45:13;13.00;99.90
41882;DHT22;27562;47.524;12.404;2023-09-18T02:47:38;12.90;99.90
41882;DHT22;27562;47.524;12.404;2023-09-18T02:50:07;12.90;99.90
41882;DHT22;27562;47.524;12.404;2023-09-18T02:52:32;13.00;99.90
41882;DHT22;27562;47.524;12.404;2023-09-18T02:54:58;13.00;99.90
41882;DHT22;27562;47.524;12.404;2023-09-18T02:57:24;13.10;99.90
41882;DHT22;27562;47.524;12.404;2023-09-18T02:59:49;13.20;99.90
41882;DHT22;27562;47.524;12.404;2023-09-18T03:02:15;13.20;99.90
41882;DHT22;27562;47.524;12.404;2023-09-18T03:04:41;13.30;99.90
41882;DHT22;27562;47.524;12.404;2023-09-18T03:07:06;13.30;99.90
41882;DHT22;27562;47.524;12.404;2023-09-18T03:09:32;13.30;99.90
41882;DHT22;27562;47.524;12.404;2023-09-18T03:11:57;13.30;99.90
41882;DHT22;27562;47.524;12.404;2023-09-18T03:14:23;13.40;99.90
41882;DHT22;27562;47.524;12.404;2023-09-18T03:16:49;13.40;99.90
41882;DHT22;27562;47.524;12.404;2023-09-18T03:19:15;13.40;99.90
41882;DHT22;27562;47.524;12.404;2023-09-18T03:21:41;13.40;99.90
41882;DHT22;27562;47.524;12.404;2023-09-18T03:24:07;13.40;99.90
41882;DHT22;27562;47.524;12.404;2023-09-18T03:26:33;13.40;99.90
41882;DHT22;27562;47.524;12.404;2023-09-18T03:28:58;13.30;99.90
41882;DHT22;27562;47.524;12.404;2023-09-18T03:31:24;13.30;99.90
41882;DHT22;27562;47.524;12.404;2023-09-18T03:33:50;13.30;99.90
41882;DHT22;27562;47.524;12.404;2023-09-18T03:36:15;13.20;99.90
41882;DHT22;27562;47.524;12.404;2023-09-18T03:38:41;13.20;99.90
41882;DHT22;27562;47.524;12.404;2023-09-18T03:41:07;13.20;99.90
41882;DHT22;27562;47.524;12.404;2023-09-18T03:43:33;13.20;99.90
41882;DHT22;27562;47.524;12.404;2023-09-18T03:46:05;13.20;99.90
41882;DHT22;27562;47.524;12.404;2023-09-18T03:48:31;13.20;99.90
41882;DHT22;27562;47.524;12.404;2023-09-18T03:51:06;13.10;99.90
41882;DHT22;27562;47.524;12.404;2023-09-18T03:53:35;13.10;99.90
41882;DHT22;27562;47.524;12.404;2023-09-18T03:56:01;13.20;99.90
41882;DHT22;27562;47.524;12.404;2023-09-18T03:58:26;13.20;99.90
41882;DHT22;27562;47.524;12.404;2023-09-18T04:00:53;13.20;99.90
41882;DHT22;27562;47.524;12.404;2023-09-18T04:03:18;13.20;99.90
41882;DHT22;27562;47.524;12.404;2023-09-18T04:05:44;13.20;99.90
41882;DHT22;27562;47.524;12.404;2023-09-18T04:08:10;13.10;99.90
41882;DHT22;27562;47.524;12.404;2023-09-18T04:10:36;13.10;99.90
41882;DHT22;27562;47.524;12.404;2023-09-18T04:13:02;13.10;99.90
41882;DHT22;27562;47.524;12.404;2023-09-18T04:15:28;13.10;99.90
41882;DHT22;27562;47.524;12.404;2023-09-18T04:17:56;13.10;99.90
41882;DHT22;27562;47.524;12.404;2023-09-18T04:20:21;13.00;99.90
41882;DHT22;27562;47.524;12.404;2023-09-18T04:23:24;12.90;99.90
41882;DHT22;27562;47.524;12.404;2023-09-18T04:25:50;12.90;99.90
41882;DHT22;27562;47.524;12.404;2023-09-18T04:28:18;12.80;99.90
41882;DHT22;27562;47.524;12.404;2023-09-18T04:30:44;12.80;99.90
41882;DHT22;27562;47.524;12.404;2023-09-18T04:33:11;12.80;99.90
41882;DHT22;27562;47.524;12.404;2023-09-18T04:35:38;12.80;99.90
41882;DHT22;27562;47.524;12.404;2023-09-18T04:38:06;12.70;99.90
41882;DHT22;27562;47.524;12.404;2023-09-18T04:40:33;12.70;99.90
41882;DHT22;27562;47.524;12.404;2023-09-18T04:42:59;12.70;99.90
41882;DHT22;27562;47.524;12.404;2023-09-18T04:45:25;12.60;99.90
41882;DHT22;27562;47.524;12.404;2023-09-18T04:47:51;12.60;99.90
41882;DHT22;27562;47.524;12.404;2023-09-18T04:50:17;12.50;99.90
41882;DHT22;27562;47.524;12.404;2023-09-18T04:52:43;12.50;99.90
41882;DHT22;27562;47.524;12.404;2023-09-18T04:55:10;12.40;99.90
41882;DHT22;27562;47.524;12.404;2023-09-18T04:57:35;12.30;99.90
41882;DHT22;27562;47.524;12.404;2023-09-18T05:00:02;12.20;99.90
41882;DHT22;27562;47.524;12.404;2023-09-18T05:02:28;12.10;99.90
41882;DHT22;27562;47.524;12.404;2023-09-18T05:04:55;12.10;99.90
41882;DHT22;27562;47.524;12.404;2023-09-18T05:07:21;12.10;99.90
41882;DHT22;27562;47.524;12.404;2023-09-18T05:09:47;12.10;99.90
41882;DHT22;27562;47.524;12.404;2023-09-18T05:12:13;12.10;99.90
41882;DHT22;27562;47.524;12.404;2023-09-18T05:14:42;12.00;99.90
41882;DHT22;27562;47.524;12.404;2023-09-18T05:17:17;12.00;99.90
41882;DHT22;27562;47.524;12.404;2023-09-18T05:19:45;12.10;99.90
41882;DHT22;27562;47.524;12.404;2023-09-18T05:22:11;12.20;99.90
41882;DHT22;27562;47.524;12.404;2023-09-18T05:24:38;12.20;99.90
41882;DHT22;27562;47.524;12.404;2023-09-18T05:27:04;12.20;99.90
41882;DHT22;27562;47.524;12.404;2023-09-18T05:29:32;12.20;99.90
41882;DHT22;27562;47.524;12.404;2023-09-18T05:31:57;12.20;99.90
41882;DHT22;27562;47.524;12.404;2023-09-18T05:34:23;12.20;99.90
41882;DHT22;27562;47.524;12.404;2023-09-18T05:36:49;12.30;99.90
41882;DHT22;27562;47.524;12.404;2023-09-18T05:39:15;12.30;99.90
41882;DHT22;27562;47.524;12.404;2023-09-18T05:41:41;12.30;99.90
41882;DHT22;27562;47.524;12.404;2023-09-18T05:44:07;12.30;99.90
41882;DHT22;27562;47.524;12.404;2023-09-18T05:46:36;12.30;99.90
41882;DHT22;27562;47.524;12.404;2023-09-18T05:49:02;12.20;99.90
41882;DHT22;27562;47.524;12.404;2023-09-18T05:51:28;12.10;99.90
41882;DHT22;27562;47.524;12.404;2023-09-18T05:53:53;12.10;99.90
41882;DHT22;27562;47.524;12.404;2023-09-18T05:56:19;12.10;99.90
41882;DHT22;27562;47.524;12.404;2023-09-18T05:58:45;12.20;99.90
41882;DHT22;27562;47.524;12.404;2023-09-18T06:01:10;12.30;99.90
41882;DHT22;27562;47.524;12.404;2023-09-18T06:03:36;12.30;99.90
41882;DHT22;27562;47.524;12.404;2023-09-18T06:06:03;12.40;99.90
41882;DHT22;27562;47.524;12.404;2023-09-18T06:08:29;12.50;99.90
41882;DHT22;27562;47.524;12.404;2023-09-18T06:10:56;12.60;99.90
41882;DHT22;27562;47.524;12.404;2023-09-18T06:13:23;12.70;99.90
41882;DHT22;27562;47.524;12.404;2023-09-18T06:15:49;12.80;99.90
41882;DHT22;27562;47.524;12.404;2023-09-18T06:18:16;12.90;99.90
41882;DHT22;27562;47.524;12.404;2023-09-18T06:20:41;12.90;99.90
41882;DHT22;27562;47.524;12.404;2023-09-18T06:23:09;13.00;99.90
41882;DHT22;27562;47.524;12.404;2023-09-18T06:25:34;13.10;99.90
41882;DHT22;27562;47.524;12.404;2023-09-18T06:28:00;13.20;99.90
41882;DHT22;27562;47.524;12.404;2023-09-18T06:30:29;13.30;99.90
41882;DHT22;27562;47.524;12.404;2023-09-18T06:32:56;13.40;99.90
41882;DHT22;27562;47.524;12.404;2023-09-18T06:35:22;13.50;99.90
41882;DHT22;27562;47.524;12.404;2023-09-18T06:37:48;13.50;99.90
41882;DHT22;27562;47.524;12.404;2023-09-18T06:40:14;13.60;99.90
41882;DHT22;27562;47.524;12.404;2023-09-18T06:42:40;13.70;99.90
41882;DHT22;27562;47.524;12.404;2023-09-18T06:45:06;13.70;99.90
41882;DHT22;27562;47.524;12.404;2023-09-18T06:47:33;13.80;99.90
41882;DHT22;27562;47.524;12.404;2023-09-18T06:49:59;13.80;99.90
41882;DHT22;27562;47.524;12.404;2023-09-18T06:52:26;13.80;99.90
41882;DHT22;27562;47.524;12.404;2023-09-18T06:54:53;13.90;99.90
41882;DHT22;27562;47.524;12.404;2023-09-18T06:57:19;14.00;99.90
41882;DHT22;27562;47.524;12.404;2023-09-18T06:59:46;14.00;99.90
41882;DHT22;27562;47.524;12.404;2023-09-18T07:02:12;14.10;99.90
41882;DHT22;27562;47.524;12.404;2023-09-18T07:04:40;14.10;99.90
41882;DHT22;27562;47.524;12.404;2023-09-18T07:07:11;14.20;99.90
41882;DHT22;27562;47.524;12.404;2023-09-18T07:09:38;14.40;99.90
41882;DHT22;27562;47.524;12.404;2023-09-18T07:12:04;14.40;99.90
41882;DHT22;27562;47.524;12.404;2023-09-18T07:14:29;14.50;99.90
41882;DHT22;27562;47.524;12.404;2023-09-18T07:16:56;14.60;99.90
41882;DHT22;27562;47.524;12.404;2023-09-18T07:19:22;14.70;99.90
41882;DHT22;27562;47.524;12.404;2023-09-18T07:21:48;14.80;99.90
41882;DHT22;27562;47.524;12.404;2023-09-18T07:24:14;14.90;99.90
41882;DHT22;27562;47.524;12.404;2023-09-18T07:26:44;15.00;99.90
41882;DHT22;27562;47.524;12.404;2023-09-18T07:29:10;15.00;99.90
41882;DHT22;27562;47.524;12.404;2023-09-18T07:31:36;15.20;99.90
41882;DHT22;27562;47.524;12.404;2023-09-18T07:34:02;15.20;99.90
41882;DHT22;27562;47.524;12.404;2023-09-18T07:36:29;15.30;99.90
41882;DHT22;27562;47.524;12.404;2023-09-18T07:38:55;15.40;99.90
41882;DHT22;27562;47.524;12.404;2023-09-18T07:41:22;15.50;99.90
41882;DHT22;27562;47.524;12.404;2023-09-18T07:43:48;15.50;99.90
41882;DHT22;27562;47.524;12.404;2023-09-18T07:46:13;15.60;99.90
41882;DHT22;27562;47.524;12.404;2023-09-18T07:48:39;15.60;99.90
41882;DHT22;27562;47.524;12.404;2023-09-18T07:51:05;15.70;99.90
41882;DHT22;27562;47.524;12.404;2023-09-18T07:53:31;15.80;99.90
41882;DHT22;27562;47.524;12.404;2023-09-18T07:55:58;15.90;99.90
41882;DHT22;27562;47.524;12.404;2023-09-18T07:58:25;16.00;99.90
41882;DHT22;27562;47.524;12.404;2023-09-18T08:00:56;16.10;99.90
41882;DHT22;27562;47.524;12.404;2023-09-18T08:03:23;16.20;99.90
41882;DHT22;27562;47.524;12.404;2023-09-18T08:05:51;16.30;99.90
41882;DHT22;27562;47.524;12.404;2023-09-18T08:08:18;16.40;99.90
41882;DHT22;27562;47.524;12.404;2023-09-18T08:10:46;16.60;99.90
41882;DHT22;27562;47.524;12.404;2023-09-18T08:13:12;16.70;99.90
41882;DHT22;27562;47.524;12.404;2023-09-18T08:15:38;16.80;99.90
41882;DHT22;27562;47.524;12.404;2023-09-18T08:18:04;16.90;99.90
41882;DHT22;27562;47.524;12.404;2023-09-18T08:20:30;17.10;99.90
41882;DHT22;27562;47.524;12.404;2023-09-18T08:22:56;17.10;99.90
41882;DHT22;27562;47.524;12.404;2023-09-18T08:25:22;17.30;99.90
41882;DHT22;27562;47.524;12.404;2023-09-18T08:27:47;17.40;99.90
41882;DHT22;27562;47.524;12.404;2023-09-18T08:30:14;17.60;99.90
41882;DHT22;27562;47.524;12.404;2023-09-18T08:32:42;17.80;99.90
41882;DHT22;27562;47.524;12.404;2023-09-18T08:35:12;17.90;99.90
41882;DHT22;27562;47.524;12.404;2023-09-18T08:37:40;18.00;99.90
41882;DHT22;27562;47.524;12.404;2023-09-18T08:40:07;18.20;99.90
41882;DHT22;27562;47.524;12.404;2023-09-18T08:42:36;18.30;99.90
41882;DHT22;27562;47.524;12.404;2023-09-18T08:45:07;18.40;99.90
41882;DHT22;27562;47.524;12.404;2023-09-18T08:47:35;18.50;99.90
41882;DHT22;27562;47.524;12.404;2023-09-18T08:50:02;18.60;99.90
41882;DHT22;27562;47.524;12.404;2023-09-18T08:52:28;18.80;99.90
41882;DHT22;27562;47.524;12.404;2023-09-18T08:54:54;18.90;99.90
41882;DHT22;27562;47.524;12.404;2023-09-18T08:57:21;19.10;99.90
41882;DHT22;27562;47.524;12.404;2023-09-18T08:59:48;19.20;99.90
41882;DHT22;27562;47.524;12.404;2023-09-18T09:02:14;19.30;99.90
41882;DHT22;27562;47.524;12.404;2023-09-18T09:04:39;19.50;99.90
41882;DHT22;27562;47.524;12.404;2023-09-18T09:07:05;19.60;99.90
41882;DHT22;27562;47.524;12.404;2023-09-18T09:09:32;19.70;99.90
41882;DHT22;27562;47.524;12.404;2023-09-18T09:11:57;19.80;99.90
41882;DHT22;27562;47.524;12.404;2023-09-18T09:14:23;19.90;99.90
41882;DHT22;27562;47.524;12.404;2023-09-18T09:16:56;19.90;99.90
41882;DHT22;27562;47.524;12.404;2023-09-18T09:19:34;19.90;99.90
41882;DHT22;27562;47.524;12.404;2023-09-18T09:22:02;19.90;99.90
41882;DHT22;27562;47.524;12.404;2023-09-18T09:24:42;19.90;99.90
41882;DHT22;27562;47.524;12.404;2023-09-18T09:27:11;20.00;99.90
41882;DHT22;27562;47.524;12.404;2023-09-18T09:29:38;20.00;99.90
41882;DHT22;27562;47.524;12.404;2023-09-18T09:32:18;20.00;99.90
41882;DHT22;27562;47.524;12.404;2023-09-18T09:34:45;20.10;99.90
41882;DHT22;27562;47.524;12.404;2023-09-18T09:37:11;20.10;99.90
41882;DHT22;27562;47.524;12.404;2023-09-18T09:39:51;20.20;99.90
41882;DHT22;27562;47.524;12.404;2023-09-18T09:42:18;20.30;99.90
41882;DHT22;27562;47.524;12.404;2023-09-18T09:44:47;20.40;99.90
41882;DHT22;27562;47.524;12.404;2023-09-18T09:47:14;20.50;99.90
41882;DHT22;27562;47.524;12.404;2023-09-18T09:49:47;20.50;99.90
41882;DHT22;27562;47.524;12.404;2023-09-18T09:52:20;20.60;99.90
41882;DHT22;27562;47.524;12.404;2023-09-18T09:54:48;20.70;99.90
41882;DHT22;27562;47.524;12.404;2023-09-18T09:57:14;20.70;99.90
41882;DHT22;27562;47.524;12.404;2023-09-18T09:59:39;21.00;99.90
41882;DHT22;27562;47.524;12.404;2023-09-18T10:02:10;21.20;99.90
41882;DHT22;27562;47.524;12.404;2023-09-18T10:04:40;21.50;99.90
41882;DHT22;27562;47.524;12.404;2023-09-18T10:07:07;21.80;99.90
41882;DHT22;27562;47.524;12.404;2023-09-18T10:09:39;22.10;99.90
41882;DHT22;27562;47.524;12.404;2023-09-18T10:12:11;22.40;99.90
41882;DHT22;27562;47.524;12.404;2023-09-18T10:14:37;22.50;99.90
41882;DHT22;27562;47.524;12.404;2023-09-18T10:17:18;22.70;99.90
41882;DHT22;27562;47.524;12.404;2023-09-18T10:20:07;22.70;99.90
41882;DHT22;27562;47.524;12.404;2023-09-18T10:22:45;22.80;99.90
41882;DHT22;27562;47.524;12.404;2023-09-18T10:25:17;22.90;99.90
41882;DHT22;27562;47.524;12.404;2023-09-18T10:27:47;23.10;99.90
41882;DHT22;27562;47.524;12.404;2023-09-18T10:30:19;23.20;99.90
41882;DHT22;27562;47.524;12.404;2023-09-18T10:32:45;23.30;99.90
41882;DHT22;27562;47.524;12.404;2023-09-18T10:35:11;23.30;99.90
41882;DHT22;27562;47.524;12.404;2023-09-18T10:37:45;23.40;99.90
41882;DHT22;27562;47.524;12.404;2023-09-18T10:40:12;23.40;99.90
41882;DHT22;27562;47.524;12.404;2023-09-18T10:42:39;23.40;99.90
41882;DHT22;27562;47.524;12.404;2023-09-18T10:45:10;23.40;99.90
41882;DHT22;27562;47.524;12.404;2023-09-18T10:47:41;23.40;99.90
41882;DHT22;27562;47.524;12.404;2023-09-18T10:50:08;23.40;99.90
41882;DHT22;27562;47.524;12.404;2023-09-18T10:52:36;23.40;99.90
41882;DHT22;27562;47.524;12.404;2023-09-18T10:55:11;23.40;99.90
41882;DHT22;27562;47.524;12.404;2023-09-18T10:57:37;23.40;99.90
41882;DHT22;27562;47.524;12.404;2023-09-18T11:00:11;23.30;99.90
41882;DHT22;27562;47.524;12.404;2023-09-18T11:02:40;23.20;99.90
41882;DHT22;27562;47.524;12.404;2023-09-18T11:05:06;23.10;99.90
41882;DHT22;27562;47.524;12.404;2023-09-18T11:07:32;23.10;99.90
41882;DHT22;27562;47.524;12.404;2023-09-18T11:09:58;23.10;99.90
41882;DHT22;27562;47.524;12.404;2023-09-18T11:12:43;23.10;99.90
41882;DHT22;27562;47.524;12.404;2023-09-18T11:15:25;23.10;99.90
41882;DHT22;27562;47.524;12.404;2023-09-18T11:18:02;23.00;99.90
41882;DHT22;27562;47.524;12.404;2023-09-18T11:20:31;23.00;99.90
41882;DHT22;27562;47.524;12.404;2023-09-18T11:23:09;22.90;99.90
41882;DHT22;27562;47.524;12.404;2023-09-18T11:28:03;22.90;99.90
41882;DHT22;27562;47.524;12.404;2023-09-18T11:30:36;22.80;99.90
41882;DHT22;27562;47.524;12.404;2023-09-18T11:33:05;22.80;99.90
41882;DHT22;27562;47.524;12.404;2023-09-18T11:35:37;22.80;99.90
41882;DHT22;27562;47.524;12.404;2023-09-18T11:38:08;22.90;99.90
41882;DHT22;27562;47.524;12.404;2023-09-18T11:40:36;23.00;99.90
41882;DHT22;27562;47.524;12.404;2023-09-18T11:43:26;23.10;99.90
41882;DHT22;27562;47.524;12.404;2023-09-18T11:45:58;23.20;99.90
41882;DHT22;27562;47.524;12.404;2023-09-18T11:48:24;23.30;99.90
41882;DHT22;27562;47.524;12.404;2023-09-18T11:50:53;23.30;99.90
41882;DHT22;27562;47.524;12.404;2023-09-18T11:53:20;23.20;99.90
41882;DHT22;27562;47.524;12.404;2023-09-18T11:55:46;23.10;99.90
41882;DHT22;27562;47.524;12.404;2023-09-18T11:58:12;23.00;99.90
41882;DHT22;27562;47.524;12.404;2023-09-18T12:00:38;22.90;99.90
41882;DHT22;27562;47.524;12.404;2023-09-18T12:03:20;22.90;99.90
41882;DHT22;27562;47.524;12.404;2023-09-18T12:05:54;22.80;99.90
41882;DHT22;27562;47.524;12.404;2023-09-18T12:08:22;22.70;99.90
41882;DHT22;27562;47.524;12.404;2023-09-18T12:10:49;22.70;99.90
41882;DHT22;27562;47.524;12.404;2023-09-18T12:13:15;22.60;99.90
41882;DHT22;27562;47.524;12.404;2023-09-18T12:15:41;22.60;99.90
41882;DHT22;27562;47.524;12.404;2023-09-18T12:18:08;22.50;99.90
41882;DHT22;27562;47.524;12.404;2023-09-18T12:20:37;22.40;99.90
41882;DHT22;27562;47.524;12.404;2023-09-18T12:23:03;22.40;99.90
41882;DHT22;27562;47.524;12.404;2023-09-18T12:25:29;22.50;99.90
41882;DHT22;27562;47.524;12.404;2023-09-18T12:27:55;22.40;99.90
41882;DHT22;27562;47.524;12.404;2023-09-18T12:30:21;22.30;99.90
41882;DHT22;27562;47.524;12.404;2023-09-18T12:32:49;22.30;99.90
41882;DHT22;27562;47.524;12.404;2023-09-18T12:35:15;22.30;99.90
41882;DHT22;27562;47.524;12.404;2023-09-18T12:37:41;22.30;99.90
41882;DHT22;27562;47.524;12.404;2023-09-18T12:40:20;22.30;99.90
41882;DHT22;27562;47.524;12.404;2023-09-18T12:42:46;22.40;99.90
41882;DHT22;27562;47.524;12.404;2023-09-18T12:45:12;22.40;99.90
41882;DHT22;27562;47.524;12.404;2023-09-18T12:47:38;22.40;99.90
41882;DHT22;27562;47.524;12.404;2023-09-18T12:50:07;22.40;99.90
41882;DHT22;27562;47.524;12.404;2023-09-18T12:52:33;22.40;99.90
41882;DHT22;27562;47.524;12.404;2023-09-18T12:54:59;22.40;99.90
41882;DHT22;27562;47.524;12.404;2023-09-18T12:57:27;22.40;99.90
41882;DHT22;27562;47.524;12.404;2023-09-18T12:59:54;22.40;99.90
41882;DHT22;27562;47.524;12.404;2023-09-18T13:02:20;22.40;99.90
41882;DHT22;27562;47.524;12.404;2023-09-18T13:04:53;22.40;99.90
41882;DHT22;27562;47.524;12.404;2023-09-18T13:07:20;22.40;99.90
41882;DHT22;27562;47.524;12.404;2023-09-18T13:10:05;22.30;99.90
41882;DHT22;27562;47.524;12.404;2023-09-18T13:12:49;22.20;99.90
41882;DHT22;27562;47.524;12.404;2023-09-18T13:15:26;22.10;99.90
41882;DHT22;27562;47.524;12.404;2023-09-18T13:17:53;22.10;99.90
41882;DHT22;27562;47.524;12.404;2023-09-18T13:20:29;22.00;99.90
41882;DHT22;27562;47.524;12.404;2023-09-18T13:22:59;22.00;99.90
41882;DHT22;27562;47.524;12.404;2023-09-18T13:25:33;22.00;99.90
41882;DHT22;27562;47.524;12.404;2023-09-18T13:28:00;21.90;99.90
41882;DHT22;27562;47.524;12.404;2023-09-18T13:30:26;21.90;99.90
41882;DHT22;27562;47.524;12.404;2023-09-18T13:33:01;21.90;99.90
41882;DHT22;27562;47.524;12.404;2023-09-18T13:35:28;21.80;99.90
41882;DHT22;27562;47.524;12.404;2023-09-18T13:37:54;21.70;99.90
41882;DHT22;27562;47.524;12.404;2023-09-18T13:40:19;21.60;99.90
41882;DHT22;27562;47.524;12.404;2023-09-18T13:42:47;21.70;99.90
41882;DHT22;27562;47.524;12.404;2023-09-18T13:45:14;21.90;99.90
41882;DHT22;27562;47.524;12.404;2023-09-18T13:47:44;22.00;99.90
41882;DHT22;27562;47.524;12.404;2023-09-18T13:50:11;22.20;99.90
41882;DHT22;27562;47.524;12.404;2023-09-18T13:52:38;22.20;99.90
41882;DHT22;27562;47.524;12.404;2023-09-18T13:55:04;22.30;99.90
41882;DHT22;27562;47.524;12.404;2023-09-18T13:57:34;22.40;99.90
41882;DHT22;27562;47.524;12.404;2023-09-18T14:00:02;22.50;99.90
41882;DHT22;27562;47.524;12.404;2023-09-18T14:02:32;22.50;99.90
41882;DHT22;27562;47.524;12.404;2023-09-18T14:04:59;22.70;99.90
41882;DHT22;27562;47.524;12.404;2023-09-18T14:07:24;22.70;99.90
41882;DHT22;27562;47.524;12.404;2023-09-18T14:09:50;22.70;99.90
41882;DHT22;27562;47.524;12.404;2023-09-18T14:12:16;22.40;99.90
41882;DHT22;27562;47.524;12.404;2023-09-18T14:14:43;22.10;99.90
41882;DHT22;27562;47.524;12.404;2023-09-18T14:17:10;21.90;99.90
41882;DHT22;27562;47.524;12.404;2023-09-18T14:19:36;21.90;99.90
41882;DHT22;27562;47.524;12.404;2023-09-18T14:22:06;21.90;99.90
41882;DHT22;27562;47.524;12.404;2023-09-18T14:24:33;21.90;99.90
41882;DHT22;27562;47.524;12.404;2023-09-18T14:27:03;21.90;99.90
41882;DHT22;27562;47.524;12.404;2023-09-18T14:29:29;21.90;99.90
41882;DHT22;27562;47.524;12.404;2023-09-18T14:31:59;21.90;99.90
41882;DHT22;27562;47.524;12.404;2023-09-18T14:34:25;21.80;99.90
41882;DHT22;27562;47.524;12.404;2023-09-18T14:36:52;21.60;99.90
41882;DHT22;27562;47.524;12.404;2023-09-18T14:39:18;21.30;99.90
41882;DHT22;27562;47.524;12.404;2023-09-18T14:41:44;21.20;99.90
41882;DHT22;27562;47.524;12.404;2023-09-18T14:44:10;21.00;99.90
41882;DHT22;27562;47.524;12.404;2023-09-18T14:46:37;21.00;99.90
41882;DHT22;27562;47.524;12.404;2023-09-18T14:49:04;20.90;99.90
41882;DHT22;27562;47.524;12.404;2023-09-18T14:51:30;20.90;99.90
41882;DHT22;27562;47.524;12.404;2023-09-18T14:53:58;20.90;99.90
41882;DHT22;27562;47.524;12.404;2023-09-18T14:56:24;20.80;99.90
41882;DHT22;27562;47.524;12.404;2023-09-18T14:58:51;20.70;99.90
41882;DHT22;27562;47.524;12.404;2023-09-18T15:01:22;20.60;99.90
41882;DHT22;27562;47.524;12.404;2023-09-18T15:03:48;20.60;99.90
41882;DHT22;27562;47.524;12.404;2023-09-18T15:06:16;20.50;99.90
41882;DHT22;27562;47.524;12.404;2023-09-18T15:08:42;20.50;99.90
41882;DHT22;27562;47.524;12.404;2023-09-18T15:11:09;20.40;99.90
41882;DHT22;27562;47.524;12.404;2023-09-18T15:13:35;20.30;99.90
41882;DHT22;27562;47.524;12.404;2023-09-18T15:16:05;20.20;99.90
41882;DHT22;27562;47.524;12.404;2023-09-18T15:18:32;20.10;99.90
41882;DHT22;27562;47.524;12.404;2023-09-18T15:20:59;20.00;99.90
41882;DHT22;27562;47.524;12.404;2023-09-18T15:23:26;19.90;99.90
41882;DHT22;27562;47.524;12.404;2023-09-18T15:25:53;19.80;99.90